createdAt,value
2019-04-05T12:08:31.070Z,29.2882
2019-04-05T12:08:47.789Z,29.0501
2019-04-05T12:09:04.796Z,29.1112
2019-04-05T13:04:50.200Z,29.7276
2019-04-05T13:04:53.256Z,29.7246
2019-04-05T13:04:55.556Z,29.7230
2019-04-05T13:04:57.816Z,29.7688
2019-04-05T13:05:00.114Z,29.7688
2019-04-05T13:05:02.406Z,29.7963
2019-04-05T13:05:04.693Z,29.7963
2019-04-05T13:05:07.004Z,29.7429
2019-04-05T13:05:09.304Z,29.8283
2019-04-05T13:05:11.598Z,29.8009
2019-04-05T13:05:13.898Z,29.7322
2019-04-05T13:05:16.189Z,29.7597
2019-04-05T13:05:21.350Z,29.7002
2019-04-05T13:05:24.034Z,29.7429
2019-04-05T13:05:26.309Z,29.6880
2019-04-05T13:05:28.624Z,29.7292
2019-04-05T13:05:30.916Z,29.7185
2019-04-05T13:05:33.214Z,29.6925
2019-04-05T13:05:35.514Z,29.7047
2019-04-05T13:05:37.820Z,29.6910
2019-04-05T13:05:40.116Z,29.6910
2019-04-05T13:05:42.386Z,29.6468
2019-04-05T13:05:44.695Z,29.7185
2019-04-05T13:05:46.998Z,29.7871
2019-04-05T13:05:51.334Z,29.7887
2019-04-05T13:05:56.974Z,29.7429
2019-04-05T13:05:59.857Z,29.7154
2019-04-05T13:06:02.130Z,29.7414
2019-04-05T13:06:04.434Z,29.7246
2019-04-05T13:06:06.756Z,29.7230
2019-04-05T13:06:09.046Z,29.7108
2019-04-05T13:06:11.326Z,29.7093
2019-04-05T13:06:13.613Z,29.6956
2019-04-05T13:06:15.939Z,29.6834
2019-04-05T13:06:19.873Z,29.6681
2019-04-05T13:06:23.150Z,29.6651
2019-04-05T13:06:25.454Z,29.7108
2019-04-05T13:06:27.749Z,29.7093
2019-04-05T13:06:30.036Z,29.6559
2019-04-05T13:06:32.328Z,29.7414
2019-04-05T13:06:34.644Z,29.7963
2019-04-05T13:06:36.970Z,29.7551
2019-04-05T13:06:42.142Z,29.7139
2019-04-05T13:06:44.647Z,29.7002
2019-04-05T13:06:46.933Z,29.6880
2019-04-05T13:06:50.626Z,29.6590
2019-04-05T13:06:55.199Z,29.7185
2019-04-05T13:06:57.496Z,29.6773
2019-04-05T13:07:20.702Z,29.5232
2019-04-05T13:16:09.827Z,29.1707
2019-04-05T13:16:13.202Z,29.1554
2019-04-05T13:16:15.512Z,29.1844
2019-04-05T13:16:17.784Z,29.1844
2019-04-05T13:16:20.085Z,29.2119
2019-04-05T13:16:22.392Z,29.1249
2019-04-05T13:16:24.696Z,29.1661
2019-04-05T13:16:25.992Z,29.1691
2019-04-05T13:16:28.268Z,29.1569
2019-04-05T13:16:30.566Z,29.1569
2019-04-05T13:16:32.851Z,29.1829
2019-04-05T13:16:35.143Z,29.1936
2019-04-05T13:16:37.934Z,29.1798
2019-04-05T13:16:40.421Z,29.3492
2019-04-05T13:16:42.722Z,29.6086
2019-04-05T13:16:45.004Z,29.6788
2019-04-05T13:16:49.519Z,29.7063
2019-04-05T13:16:52.297Z,29.7520
2019-04-05T13:16:54.562Z,29.7520
2019-04-05T13:16:56.855Z,29.7368
2019-04-05T13:17:01.756Z,29.7246
2019-04-05T13:17:05.080Z,29.7200
2019-04-05T13:17:07.474Z,29.6956
2019-04-05T13:17:09.772Z,29.6971
2019-04-05T13:17:12.111Z,29.6544
2019-04-05T13:17:33.836Z,29.5415
2019-04-05T13:17:36.132Z,29.4667
2019-04-05T13:17:38.487Z,29.5094
2019-04-05T13:17:40.775Z,29.4942
2019-04-05T13:17:43.050Z,29.4957
2019-04-05T13:17:45.352Z,29.4667
2019-04-05T13:17:46.644Z,29.4667
2019-04-05T13:17:47.903Z,29.4392
2019-04-05T13:17:50.205Z,29.4255
2019-04-05T13:17:52.485Z,29.4255
2019-04-05T13:17:54.765Z,29.4392
2019-04-05T13:18:00.419Z,29.4392
2019-04-05T13:18:03.674Z,29.3950
2019-04-05T13:18:05.979Z,29.3935
2019-04-05T13:18:08.301Z,29.4118
2019-04-05T13:18:10.602Z,29.4667
2019-04-05T13:18:11.892Z,29.3492
2019-04-05T13:18:14.198Z,29.3660
2019-04-05T13:18:16.529Z,29.4224
2019-04-05T13:18:18.842Z,29.3523
2019-04-05T13:18:21.153Z,29.3523
2019-04-05T13:18:25.094Z,29.3660
2019-04-05T13:18:30.696Z,29.3385
2019-04-05T13:18:33.784Z,29.3385
2019-04-05T13:18:36.102Z,29.3492
2019-04-05T13:18:38.409Z,29.3675
2019-04-05T13:18:40.744Z,29.3523
2019-04-05T13:18:43.132Z,29.3935
2019-04-05T13:18:45.438Z,29.3660
2019-04-05T13:18:47.822Z,29.4362
2019-04-05T13:18:50.144Z,29.3950
2019-04-05T13:18:52.452Z,29.3767
2019-04-05T13:18:54.774Z,29.3675
2019-04-05T13:19:00.555Z,29.3660
2019-04-05T13:19:03.170Z,29.4209
2019-04-05T13:19:05.470Z,29.4224
2019-04-05T13:19:07.807Z,29.4209
2019-04-05T13:19:09.187Z,29.3797
2019-04-05T13:19:11.544Z,29.4118
2019-04-05T13:19:13.852Z,29.4118
2019-04-05T13:19:16.182Z,29.4224
2019-04-05T13:19:18.564Z,29.4362
2019-04-05T13:19:20.882Z,29.4362
2019-04-05T13:19:23.242Z,29.4362
2019-04-05T13:19:25.593Z,29.4667
2019-04-05T13:19:28.561Z,29.4499
2019-04-05T13:19:31.940Z,29.4484
2019-04-05T13:19:34.272Z,29.4636
2019-04-05T13:19:36.685Z,29.4087
2019-04-05T13:19:38.974Z,29.4087
2019-04-05T13:19:41.264Z,29.4774
2019-04-05T13:19:43.595Z,29.4209
2019-04-05T13:19:44.892Z,29.4911
2019-04-05T13:19:47.175Z,29.4667
2019-04-05T13:19:49.446Z,29.4484
2019-04-05T13:19:51.742Z,29.4942
2019-04-05T13:19:54.045Z,29.4636
2019-04-05T13:19:56.343Z,29.4362
2019-04-05T13:20:00.810Z,29.4636
2019-04-05T13:20:02.643Z,29.4667
2019-04-05T13:20:04.949Z,29.4942
2019-04-05T13:20:07.233Z,29.4636
2019-04-05T13:20:08.514Z,29.4636
2019-04-05T13:20:10.817Z,29.4942
2019-04-05T13:20:13.164Z,29.4759
2019-04-05T13:20:15.484Z,29.4636
2019-04-05T13:20:17.772Z,29.4911
2019-04-05T13:20:20.072Z,29.4621
2019-04-05T13:20:22.337Z,29.5048
2019-04-05T13:20:24.638Z,29.4636
2019-04-05T13:20:30.215Z,29.5048
2019-04-05T13:20:33.078Z,29.4759
2019-04-05T13:20:35.367Z,29.4942
2019-04-05T13:20:37.673Z,29.5048
2019-04-05T13:20:39.962Z,29.5354
2019-04-05T13:20:42.225Z,29.5216
2019-04-05T13:20:44.504Z,29.5186
2019-04-05T13:20:46.811Z,29.5491
2019-04-05T13:20:49.122Z,29.5186
2019-04-05T13:20:51.417Z,29.5323
2019-04-05T13:20:53.694Z,29.4911
2019-04-05T13:20:55.965Z,29.4896
2019-04-05T13:21:00.036Z,29.5460
2019-04-05T13:21:14.372Z,29.5460
2019-04-05T13:21:15.146Z,29.5491
2019-04-05T13:21:17.924Z,29.5323
2019-04-05T13:21:20.215Z,29.5766
2019-04-05T13:21:27.353Z,29.5354
2019-04-05T13:21:32.080Z,29.5735
2019-04-05T13:21:35.162Z,29.5186
2019-04-05T13:21:37.490Z,29.5460
2019-04-05T13:21:39.822Z,29.5186
2019-04-05T13:21:42.125Z,29.5186
2019-04-05T13:21:44.423Z,29.5644
2019-04-05T13:21:46.732Z,29.5186
2019-04-05T13:21:48.976Z,29.5491
2019-04-05T13:21:51.304Z,29.5354
2019-04-05T13:21:53.653Z,29.5323
2019-04-05T13:21:55.952Z,29.5628
2019-04-05T13:21:58.285Z,29.5354
2019-04-05T13:22:02.613Z,29.5354
2019-04-05T13:22:05.882Z,29.5491
2019-04-05T13:22:08.164Z,29.5918
2019-04-05T13:22:10.455Z,29.5918
2019-04-05T13:22:12.738Z,29.5766
2019-04-05T13:22:14.994Z,29.5354
2019-04-05T13:22:17.286Z,29.5628
2019-04-05T13:22:22.498Z,29.5354
2019-04-05T13:22:25.064Z,29.5186
2019-04-05T13:22:27.378Z,29.5598
2019-04-05T13:22:32.360Z,29.5460
2019-04-05T13:22:35.319Z,29.5460
2019-04-05T13:22:37.635Z,29.5460
2019-04-05T13:22:39.893Z,29.5460
2019-04-05T13:22:42.182Z,29.5460
2019-04-05T13:22:44.475Z,29.5735
2019-04-05T13:22:46.755Z,29.5628
2019-04-05T13:22:49.005Z,29.5872
2019-04-05T13:22:51.302Z,29.5460
2019-04-05T13:22:53.610Z,29.5033
2019-04-05T13:22:55.867Z,29.5872
2019-04-05T13:22:58.181Z,29.5628
2019-04-05T13:23:03.163Z,29.5598
2019-04-05T13:23:07.685Z,29.6727
2019-04-05T13:23:09.990Z,29.6727
2019-04-05T13:23:12.295Z,29.6178
2019-04-05T13:23:14.567Z,29.6605
2019-04-05T13:23:16.856Z,29.6742
2019-04-05T13:23:19.162Z,29.6727
2019-04-05T13:23:21.442Z,29.6178
2019-04-05T13:23:23.740Z,29.6727
2019-04-05T13:23:26.011Z,29.6468
2019-04-05T13:23:28.317Z,29.6635
2019-04-05T13:23:30.628Z,29.6315
2019-04-05T13:23:33.794Z,29.6498
2019-04-05T13:23:38.321Z,29.7337
2019-04-05T13:23:40.637Z,29.7612
2019-04-05T13:23:41.923Z,29.8054
2019-04-05T13:23:44.204Z,29.7887
2019-04-05T13:23:46.484Z,29.8619
2019-04-05T13:23:48.782Z,29.8604
2019-04-05T13:23:51.083Z,29.8482
2019-04-05T13:23:53.394Z,29.9336
2019-04-05T13:23:55.702Z,29.8482
2019-04-05T13:23:57.994Z,29.8344
2019-04-05T13:24:00.286Z,29.7200
2019-04-05T13:24:04.180Z,29.6773
2019-04-05T13:24:10.075Z,29.6651
2019-04-05T13:24:13.282Z,29.6925
2019-04-05T13:24:15.560Z,29.6651
2019-04-05T13:24:17.842Z,29.6788
2019-04-05T13:24:20.143Z,29.6956
2019-04-05T13:24:22.446Z,29.6513
2019-04-05T13:24:24.842Z,29.6956
2019-04-05T13:24:27.152Z,29.6513
2019-04-05T13:24:29.443Z,29.6330
2019-04-05T13:24:31.772Z,29.6925
2019-04-05T13:24:34.060Z,29.6513
2019-04-05T13:24:39.577Z,29.6773
2019-04-05T13:24:42.671Z,29.6361
2019-04-05T13:24:44.972Z,29.6056
2019-04-05T13:24:47.312Z,29.5674
2019-04-05T13:24:49.664Z,29.5949
2019-04-05T13:24:51.954Z,29.5674
2019-04-05T13:24:54.324Z,29.5674
2019-04-05T13:24:55.650Z,29.5491
2019-04-05T13:24:57.960Z,29.5506
2019-04-05T13:25:00.258Z,29.5506
2019-04-05T13:25:02.555Z,29.5079
2019-04-05T13:25:06.169Z,29.5079
2019-04-05T13:25:10.971Z,29.4942
2019-04-05T13:25:13.784Z,29.5079
2019-04-05T13:25:16.066Z,29.5079
2019-04-05T13:25:18.373Z,29.5079
2019-04-05T13:25:23.003Z,29.5079
2019-04-05T13:25:25.524Z,29.4804
2019-04-05T13:25:27.794Z,29.4667
2019-04-05T13:25:30.112Z,29.4087
2019-04-05T13:25:32.412Z,29.4224
2019-04-05T13:25:34.682Z,29.3935
2019-04-05T13:25:38.836Z,29.4499
2019-04-05T13:25:43.540Z,29.4774
2019-04-05T13:25:45.866Z,29.4774
2019-04-05T13:25:48.153Z,29.4362
2019-04-05T13:25:50.422Z,29.3935
2019-04-05T13:25:52.752Z,29.4362
2019-04-05T13:25:55.072Z,29.4484
2019-04-05T13:25:57.353Z,29.4499
2019-04-05T13:25:59.666Z,29.4667
2019-04-05T13:26:01.992Z,29.4499
2019-04-05T13:26:04.373Z,29.4087
2019-04-05T13:26:06.692Z,29.4499
2019-04-05T13:26:11.496Z,29.4118
2019-04-05T13:26:14.880Z,29.3660
2019-04-05T13:26:17.204Z,29.4118
2019-04-05T13:26:19.532Z,29.3950
2019-04-05T13:26:21.872Z,29.3950
2019-04-05T13:26:26.387Z,29.3248
2019-04-05T13:26:28.939Z,29.3111
2019-04-05T13:26:31.252Z,29.2805
2019-04-05T13:26:33.555Z,29.2668
2019-04-05T13:26:36.920Z,29.2943
2019-04-05T13:26:41.654Z,29.2668
2019-04-05T13:26:44.596Z,29.2943
2019-04-05T13:26:46.897Z,29.3492
2019-04-05T13:26:49.181Z,29.3385
2019-04-05T13:26:51.480Z,29.3675
2019-04-05T13:26:53.789Z,29.3400
2019-04-05T13:26:56.082Z,29.4499
2019-04-05T13:26:58.382Z,29.4118
2019-04-05T13:27:02.060Z,29.4942
2019-04-05T13:27:04.737Z,29.5781
2019-04-05T13:27:07.037Z,29.5369
2019-04-05T13:27:11.530Z,29.5506
2019-04-05T13:27:14.013Z,29.5644
2019-04-05T13:27:16.295Z,29.6086
2019-04-05T13:27:18.602Z,29.6223
2019-04-05T13:27:20.898Z,29.6498
2019-04-05T13:27:23.205Z,29.6513
2019-04-05T13:27:25.498Z,29.6223
2019-04-05T13:27:27.902Z,29.6651
2019-04-05T13:27:30.195Z,29.6376
2019-04-05T13:27:32.495Z,29.6361
2019-04-05T13:27:34.782Z,29.6361
2019-04-05T13:27:37.085Z,29.5949
2019-04-05T13:27:41.299Z,29.5674
2019-04-05T13:27:44.458Z,29.5079
2019-04-05T13:27:46.755Z,29.5094
2019-04-05T13:27:49.017Z,29.4957
2019-04-05T13:27:51.315Z,29.4392
2019-04-05T13:27:53.614Z,29.4774
2019-04-05T13:27:55.917Z,29.4392
2019-04-05T13:27:58.242Z,29.4804
2019-04-05T13:28:12.448Z,29.4942
2019-04-05T13:28:13.184Z,29.5369
2019-04-05T13:28:15.947Z,29.4804
2019-04-05T13:28:20.234Z,29.4942
2019-04-05T13:28:22.526Z,29.4942
2019-04-05T13:28:24.833Z,29.5232
2019-04-05T13:28:27.122Z,29.4957
2019-04-05T13:28:29.434Z,29.5689
2019-04-05T13:28:31.748Z,29.5232
2019-04-05T13:28:34.074Z,29.5674
2019-04-05T13:28:35.373Z,29.5674
2019-04-05T13:28:37.639Z,29.5232
2019-04-05T13:28:39.923Z,29.5537
2019-04-05T13:28:42.224Z,29.5415
2019-04-05T13:28:44.525Z,29.5964
2019-04-05T13:28:48.599Z,29.5262
2019-04-05T13:28:50.647Z,29.5674
2019-04-05T13:28:52.929Z,29.6086
2019-04-05T13:28:55.200Z,29.6544
2019-04-05T13:28:57.495Z,29.5689
2019-04-05T13:28:59.759Z,29.5949
2019-04-05T13:29:02.077Z,29.6086
2019-04-05T13:29:04.375Z,29.5689
2019-04-05T13:29:06.667Z,29.5674
2019-04-05T13:29:08.985Z,29.5537
2019-04-05T13:29:11.281Z,29.5399
2019-04-05T13:29:13.611Z,29.5399
2019-04-05T13:29:17.581Z,29.5094
2019-04-05T13:29:22.004Z,29.5232
2019-04-05T13:29:24.310Z,29.5552
2019-04-05T13:29:26.576Z,29.5125
2019-04-05T13:29:28.888Z,29.5369
2019-04-05T13:29:31.192Z,29.4820
2019-04-05T13:29:33.477Z,29.5232
2019-04-05T13:29:35.794Z,29.5399
2019-04-05T13:29:38.093Z,29.5399
2019-04-05T13:29:40.365Z,29.5415
2019-04-05T13:29:42.682Z,29.5689
2019-04-05T13:29:44.977Z,29.5537
2019-04-05T13:29:47.341Z,29.5689
2019-04-05T13:29:51.474Z,29.6101
2019-04-05T13:29:53.781Z,29.5537
2019-04-05T13:29:56.112Z,29.5537
2019-04-05T13:29:58.412Z,29.5262
2019-04-05T13:30:00.693Z,29.5415
2019-04-05T13:30:03.012Z,29.5094
2019-04-05T13:30:05.283Z,29.4713
2019-04-05T13:30:06.593Z,29.4713
2019-04-05T13:30:08.886Z,29.4438
2019-04-05T13:30:11.166Z,29.4804
2019-04-05T13:30:13.459Z,29.4133
2019-04-05T13:30:18.364Z,29.4682
2019-04-05T13:30:20.902Z,29.4224
2019-04-05T13:30:22.215Z,29.4530
2019-04-05T13:30:24.482Z,29.3980
2019-04-05T13:30:26.843Z,29.3950
2019-04-05T13:30:28.132Z,29.3706
2019-04-05T13:30:30.443Z,29.3675
2019-04-05T13:30:32.755Z,29.3263
2019-04-05T13:30:35.054Z,29.3675
2019-04-05T13:30:37.362Z,29.2851
2019-04-05T13:30:39.654Z,29.3263
2019-04-05T13:30:41.901Z,29.3538
2019-04-05T13:30:44.227Z,29.3156
2019-04-05T13:30:48.480Z,29.2988
2019-04-05T13:30:51.952Z,29.3263
2019-04-05T13:30:55.657Z,29.3812
2019-04-05T13:30:58.024Z,29.4270
2019-04-05T13:31:00.333Z,29.4133
2019-04-05T13:31:02.633Z,29.3980
2019-04-05T13:31:04.934Z,29.4133
2019-04-05T13:31:07.212Z,29.3980
2019-04-05T13:31:09.532Z,29.4255
2019-04-05T13:31:11.814Z,29.3980
2019-04-05T13:31:14.102Z,29.4408
2019-04-05T13:31:18.244Z,29.4530
2019-04-05T13:31:21.402Z,29.5125
2019-04-05T13:31:23.722Z,29.4820
2019-04-05T13:31:26.005Z,29.5262
2019-04-05T13:31:28.312Z,29.5125
2019-04-05T13:31:30.605Z,29.4682
2019-04-05T13:31:32.915Z,29.4850
2019-04-05T13:31:35.212Z,29.5415
2019-04-05T13:31:37.509Z,29.4987
2019-04-05T13:31:39.819Z,29.4408
2019-04-05T13:31:42.126Z,29.5094
2019-04-05T13:31:44.402Z,29.4987
2019-04-05T13:31:48.695Z,29.4987
2019-04-05T13:31:51.772Z,29.5003
2019-04-05T13:31:54.073Z,29.4820
2019-04-05T13:31:56.355Z,29.4820
2019-04-05T13:31:58.659Z,29.5415
2019-04-05T13:32:00.985Z,29.5415
2019-04-05T13:32:03.330Z,29.4545
2019-04-05T13:32:05.622Z,29.4987
2019-04-05T13:32:06.898Z,29.4713
2019-04-05T13:32:09.193Z,29.5003
2019-04-05T13:32:11.498Z,29.4270
2019-04-05T13:32:13.842Z,29.4408
2019-04-05T13:32:17.231Z,29.3980
2019-04-05T13:32:22.296Z,29.4713
2019-04-05T13:32:25.156Z,29.4270
2019-04-05T13:32:27.478Z,29.3950
2019-04-05T13:32:29.829Z,29.3812
2019-04-05T13:32:32.128Z,29.3843
2019-04-05T13:32:34.423Z,29.4438
2019-04-05T13:32:36.725Z,29.4255
2019-04-05T13:32:38.993Z,29.4408
2019-04-05T13:32:41.324Z,29.4545
2019-04-05T13:32:43.656Z,29.4530
2019-04-05T13:32:45.924Z,29.4820
2019-04-05T13:32:48.209Z,29.5125
2019-04-05T13:32:53.395Z,29.4820
2019-04-05T13:32:56.105Z,29.5094
2019-04-05T13:32:58.404Z,29.5094
2019-04-05T13:33:00.702Z,29.5415
2019-04-05T13:33:03.006Z,29.5094
2019-04-05T13:33:05.280Z,29.5262
2019-04-05T13:33:07.582Z,29.5552
2019-04-05T13:33:09.843Z,29.5262
2019-04-05T13:33:12.110Z,29.5125
2019-04-05T13:33:14.403Z,29.4408
2019-04-05T13:33:16.705Z,29.4408
2019-04-05T13:33:19.002Z,29.4957
2019-04-05T13:33:21.575Z,29.4545
2019-04-05T13:33:24.886Z,29.4987
2019-04-05T13:33:28.974Z,29.4408
2019-04-05T13:33:31.660Z,29.4545
2019-04-05T13:33:33.962Z,29.4408
2019-04-05T13:33:36.272Z,29.4545
2019-04-05T13:33:38.572Z,29.4270
2019-04-05T13:33:40.864Z,29.4133
2019-04-05T13:33:43.200Z,29.3980
2019-04-05T13:33:45.534Z,29.4133
2019-04-05T13:33:47.837Z,29.4255
2019-04-05T13:33:54.374Z,29.4682
2019-04-05T13:33:57.374Z,29.4820
2019-04-05T13:33:59.675Z,29.4682
2019-04-05T13:34:01.963Z,29.4682
2019-04-05T13:34:05.969Z,29.5415
2019-04-05T13:34:08.782Z,29.5094
2019-04-05T13:34:11.070Z,29.5125
2019-04-05T13:34:13.351Z,29.5094
2019-04-05T13:34:18.223Z,29.5094
2019-04-05T13:34:20.933Z,29.4804
2019-04-05T13:34:25.499Z,29.4392
2019-04-05T13:34:28.237Z,29.4224
2019-04-05T13:34:30.522Z,29.4408
2019-04-05T13:34:32.805Z,29.4255
2019-04-05T13:34:35.114Z,29.4270
2019-04-05T13:34:37.401Z,29.4133
2019-04-05T13:34:39.703Z,29.4270
2019-04-05T13:34:42.012Z,29.3706
2019-04-05T13:34:44.284Z,29.3812
2019-04-05T13:34:46.568Z,29.4118
2019-04-05T13:34:47.855Z,29.4820
2019-04-05T13:34:50.153Z,29.4255
2019-04-05T13:34:53.573Z,29.4682
2019-04-05T13:34:58.034Z,29.5079
2019-04-05T13:35:00.332Z,29.5079
2019-04-05T13:35:02.596Z,29.5232
2019-04-05T13:35:04.894Z,29.4987
2019-04-05T13:35:07.192Z,29.4987
2019-04-05T13:35:09.482Z,29.5689
2019-04-05T13:35:11.805Z,29.5232
2019-04-05T13:35:16.710Z,29.4804
2019-04-05T13:35:19.280Z,29.4499
2019-04-05T13:35:22.043Z,29.4362
2019-04-05T13:35:24.576Z,29.4499
2019-04-05T13:35:26.874Z,29.4987
2019-04-05T13:35:29.154Z,29.4987
2019-04-05T13:35:31.470Z,29.4804
2019-04-05T13:35:33.761Z,29.5262
2019-04-05T13:35:35.093Z,29.4987
2019-04-05T13:35:37.396Z,29.4942
2019-04-05T13:35:39.680Z,29.5506
2019-04-05T13:35:41.982Z,29.5415
2019-04-05T13:35:44.296Z,29.5094
2019-04-05T13:35:46.612Z,29.5399
2019-04-05T13:35:48.904Z,29.5399
2019-04-05T13:35:51.220Z,29.4667
2019-04-05T13:35:53.503Z,29.4118
2019-04-05T13:35:55.792Z,29.4255
2019-04-05T13:35:58.083Z,29.4392
2019-04-05T13:36:00.392Z,29.4255
2019-04-05T13:36:02.702Z,29.3950
